EXS2AC EGNM-LGSK
Flight info
| Callsign | EXS2AC |
|---|---|
| Flight time | 3h 22m |
| Altitude | 35000 |
| Route | LAMIX L603 DOLAS DCT NAVPI DCT DODEN DCT NEGIX DCT DINKU M867 XERUM DCT BAVAX DCT RADIZ DCT DOL DCT MONID DCT IDASI DCT EDALA DCT SOLGU DCT OSLUD DCT MEDUX UM867 KOGAT DCT ERANA UL737 TSL UL617 IBIDI |
| Aircraft | B738/M-SDE2E3FGHIRWXY/LB1 |
Departure
| Time | 2026-05-04 13:04 |
|---|---|
| Airport | Leeds Bradford Airport (EGNM) |
Arrival
| Time | 2026-05-04 16:26 |
|---|---|
| Airport | Skiathos Island National Airport (LGSK) |
| Time | Latitude | Longitude | Altitude | Speed | Heading |
|---|---|---|---|---|---|
| 2026-05-04 11:59 | 53.86876 | -1.65548 | 664 ft | 0 kts | 1° |
| 2026-05-04 12:53 | 53.86862 | -1.65549 | 664 ft | 3 kts | 1° |
| 2026-05-04 12:54 | 53.86844 | -1.65550 | 663 ft | 2 kts | 1° |
| 2026-05-04 12:54 | 53.86824 | -1.65554 | 663 ft | 3 kts | 37° |
| 2026-05-04 12:54 | 53.86815 | -1.65578 | 663 ft | 3 kts | 91° |
| 2026-05-04 12:54 | 53.86815 | -1.65554 | 663 ft | 3 kts | 91° |
| 2026-05-04 12:55 | 53.86814 | -1.65522 | 663 ft | 0 kts | 91° |
| 2026-05-04 12:56 | 53.86814 | -1.65512 | 663 ft | 0 kts | 90° |
| 2026-05-04 12:57 | 53.86814 | -1.65494 | 662 ft | 3 kts | 92° |
| 2026-05-04 12:57 | 53.86806 | -1.65440 | 660 ft | 7 kts | 123° |
| 2026-05-04 12:57 | 53.86748 | -1.65416 | 660 ft | 11 kts | 181° |
| 2026-05-04 12:57 | 53.86670 | -1.65423 | 661 ft | 12 kts | 183° |
| 2026-05-04 12:58 | 53.86583 | -1.65432 | 664 ft | 12 kts | 183° |
| 2026-05-04 12:58 | 53.86519 | -1.65437 | 667 ft | 8 kts | 182° |
| 2026-05-04 12:58 | 53.86466 | -1.65443 | 669 ft | 8 kts | 184° |
| 2026-05-04 12:58 | 53.86437 | -1.65446 | 671 ft | 0 kts | 184° |
| 2026-05-04 12:59 | 53.86429 | -1.65447 | 672 ft | 3 kts | 184° |
| 2026-05-04 12:59 | 53.86395 | -1.65450 | 675 ft | 6 kts | 184° |
| 2026-05-04 13:00 | 53.86336 | -1.65456 | 676 ft | 12 kts | 183° |
| 2026-05-04 13:00 | 53.86230 | -1.65462 | 679 ft | 18 kts | 171° |
| 2026-05-04 13:00 | 53.86129 | -1.65347 | 679 ft | 17 kts | 137° |
| 2026-05-04 13:00 | 53.86038 | -1.65209 | 674 ft | 16 kts | 137° |
| 2026-05-04 13:01 | 53.85963 | -1.65092 | 669 ft | 13 kts | 137° |
| 2026-05-04 13:01 | 53.85915 | -1.64983 | 664 ft | 12 kts | 101° |
| 2026-05-04 13:01 | 53.85875 | -1.64927 | 663 ft | 7 kts | 212° |
| 2026-05-04 13:01 | 53.85883 | -1.64972 | 663 ft | 4 kts | 322° |
| 2026-05-04 13:02 | 53.85890 | -1.64981 | 663 ft | 0 kts | 321° |
| 2026-05-04 13:03 | 53.85897 | -1.64991 | 663 ft | 12 kts | 320° |
| 2026-05-04 13:03 | 53.86155 | -1.65385 | 680 ft | 89 kts | 318° |
| 2026-05-04 13:03 | 53.86812 | -1.66394 | 667 ft | 161 kts | 317° |
| 2026-05-04 13:03 | 53.87711 | -1.67806 | 1156 ft | 182 kts | 316° |
| 2026-05-04 13:04 | 53.88486 | -1.69416 | 2321 ft | 175 kts | 302° |
| 2026-05-04 13:04 | 53.89210 | -1.71232 | 2867 ft | 196 kts | 301° |
| 2026-05-04 13:04 | 53.89600 | -1.73536 | 3202 ft | 219 kts | 275° |
| 2026-05-04 13:04 | 53.89636 | -1.76193 | 3702 ft | 232 kts | 262° |
| 2026-05-04 13:05 | 53.89065 | -1.78908 | 4008 ft | 258 kts | 237° |
| 2026-05-04 13:05 | 53.87740 | -1.80980 | 4722 ft | 265 kts | 203° |
| 2026-05-04 13:05 | 53.85933 | -1.81384 | 5547 ft | 267 kts | 169° |
| 2026-05-04 13:05 | 53.84151 | -1.80467 | 6386 ft | 271 kts | 156° |
| 2026-05-04 13:06 | 53.82616 | -1.78577 | 6861 ft | 275 kts | 134° |
| 2026-05-04 13:06 | 53.81284 | -1.76223 | 7033 ft | 279 kts | 135° |
| 2026-05-04 13:06 | 53.79904 | -1.73931 | 7043 ft | 278 kts | 136° |
| 2026-05-04 13:06 | 53.78496 | -1.71682 | 7050 ft | 279 kts | 137° |
| 2026-05-04 13:07 | 53.77072 | -1.69445 | 7057 ft | 279 kts | 138° |
| 2026-05-04 13:07 | 53.75642 | -1.67217 | 7047 ft | 279 kts | 138° |
| 2026-05-04 13:07 | 53.74218 | -1.65008 | 7037 ft | 278 kts | 138° |
| 2026-05-04 13:07 | 53.72790 | -1.62797 | 7050 ft | 279 kts | 138° |
| 2026-05-04 13:08 | 53.71362 | -1.60587 | 7057 ft | 278 kts | 138° |
| 2026-05-04 13:08 | 53.69934 | -1.58379 | 7052 ft | 278 kts | 138° |
| 2026-05-04 13:08 | 53.68506 | -1.56173 | 7064 ft | 278 kts | 138° |
| 2026-05-04 13:08 | 53.67080 | -1.53974 | 7067 ft | 279 kts | 138° |
| 2026-05-04 13:09 | 53.65659 | -1.51786 | 7093 ft | 282 kts | 138° |
| 2026-05-04 13:09 | 53.64188 | -1.49524 | 7663 ft | 285 kts | 139° |
| 2026-05-04 13:09 | 53.62738 | -1.47295 | 8531 ft | 285 kts | 139° |
| 2026-05-04 13:09 | 53.61267 | -1.45036 | 9355 ft | 289 kts | 139° |
| 2026-05-04 13:10 | 53.59770 | -1.42738 | 10090 ft | 293 kts | 139° |
| 2026-05-04 13:10 | 53.58235 | -1.40386 | 10512 ft | 309 kts | 139° |
| 2026-05-04 13:10 | 53.56587 | -1.37862 | 10701 ft | 332 kts | 139° |
| 2026-05-04 13:10 | 53.54824 | -1.35162 | 11164 ft | 344 kts | 139° |
| 2026-05-04 13:11 | 53.53043 | -1.32437 | 11858 ft | 348 kts | 139° |
| 2026-05-04 13:11 | 53.51268 | -1.29726 | 12614 ft | 350 kts | 139° |
| 2026-05-04 13:11 | 53.49480 | -1.26916 | 13354 ft | 354 kts | 134° |
| 2026-05-04 13:11 | 53.47911 | -1.23710 | 14072 ft | 359 kts | 126° |
| 2026-05-04 13:12 | 53.46587 | -1.20137 | 14761 ft | 363 kts | 118° |
| 2026-05-04 13:12 | 53.45452 | -1.16318 | 15454 ft | 366 kts | 117° |
| 2026-05-04 13:12 | 53.44335 | -1.12479 | 16135 ft | 369 kts | 117° |
| 2026-05-04 13:12 | 53.43203 | -1.08597 | 16795 ft | 371 kts | 117° |
| 2026-05-04 13:13 | 53.42431 | -1.05966 | 17236 ft | 373 kts | 117° |
| 2026-05-04 13:13 | 53.41271 | -1.02041 | 17885 ft | 377 kts | 117° |
| 2026-05-04 13:13 | 53.40099 | -0.98095 | 18427 ft | 382 kts | 117° |
| 2026-05-04 13:13 | 53.38908 | -0.94105 | 18990 ft | 384 kts | 117° |
| 2026-05-04 13:14 | 53.37708 | -0.90137 | 19570 ft | 386 kts | 117° |
| 2026-05-04 13:14 | 53.36448 | -0.86105 | 20123 ft | 389 kts | 118° |
| 2026-05-04 13:14 | 53.35192 | -0.82133 | 20665 ft | 392 kts | 118° |
| 2026-05-04 13:14 | 53.33900 | -0.78045 | 21220 ft | 394 kts | 117° |
| 2026-05-04 13:15 | 53.32635 | -0.74028 | 21780 ft | 396 kts | 117° |
| 2026-05-04 13:15 | 53.31350 | -0.69952 | 22332 ft | 398 kts | 117° |
| 2026-05-04 13:15 | 53.30177 | -0.65753 | 22823 ft | 400 kts | 109° |
| 2026-05-04 13:15 | 53.29322 | -0.61311 | 23339 ft | 402 kts | 105° |
| 2026-05-04 13:16 | 53.28565 | -0.56804 | 23824 ft | 404 kts | 105° |
| 2026-05-04 13:16 | 53.27781 | -0.52280 | 24265 ft | 406 kts | 105° |
| 2026-05-04 13:16 | 53.26947 | -0.47756 | 24711 ft | 408 kts | 106° |
| 2026-05-04 13:16 | 53.26088 | -0.43237 | 25139 ft | 409 kts | 107° |
| 2026-05-04 13:17 | 53.25225 | -0.38704 | 25550 ft | 411 kts | 106° |
| 2026-05-04 13:17 | 53.24362 | -0.34139 | 25934 ft | 414 kts | 107° |
| 2026-05-04 13:17 | 53.23488 | -0.29541 | 26309 ft | 416 kts | 107° |
| 2026-05-04 13:17 | 53.22608 | -0.24943 | 26714 ft | 417 kts | 107° |
| 2026-05-04 13:18 | 53.21717 | -0.20327 | 27121 ft | 419 kts | 107° |
| 2026-05-04 13:18 | 53.20820 | -0.15688 | 27507 ft | 420 kts | 107° |
| 2026-05-04 13:18 | 53.19921 | -0.11042 | 27877 ft | 422 kts | 107° |
| 2026-05-04 13:18 | 53.19018 | -0.06385 | 28256 ft | 424 kts | 107° |
| 2026-05-04 13:19 | 53.18107 | -0.01694 | 28630 ft | 426 kts | 107° |
| 2026-05-04 13:19 | 53.17188 | 0.03037 | 28851 ft | 431 kts | 107° |
| 2026-05-04 13:19 | 53.16262 | 0.07803 | 29098 ft | 435 kts | 107° |
| 2026-05-04 13:19 | 53.15340 | 0.12545 | 29475 ft | 435 kts | 107° |
| 2026-05-04 13:20 | 53.14392 | 0.17404 | 29835 ft | 436 kts | 107° |
| 2026-05-04 13:20 | 53.13453 | 0.22207 | 30154 ft | 438 kts | 107° |
| 2026-05-04 13:20 | 53.12507 | 0.27035 | 30499 ft | 437 kts | 107° |
| 2026-05-04 13:20 | 53.11562 | 0.31844 | 30863 ft | 436 kts | 107° |
| 2026-05-04 13:21 | 53.10620 | 0.36629 | 31219 ft | 435 kts | 107° |
| 2026-05-04 13:21 | 53.09676 | 0.41410 | 31545 ft | 435 kts | 108° |
| 2026-05-04 13:21 | 53.08727 | 0.46201 | 31863 ft | 435 kts | 108° |
| 2026-05-04 13:21 | 53.07783 | 0.50961 | 32206 ft | 434 kts | 108° |
| 2026-05-04 13:22 | 53.06835 | 0.55723 | 32468 ft | 435 kts | 108° |
| 2026-05-04 13:22 | 53.05876 | 0.60536 | 32658 ft | 438 kts | 108° |
| 2026-05-04 13:22 | 53.04916 | 0.65336 | 32944 ft | 438 kts | 108° |
| 2026-05-04 13:22 | 53.03958 | 0.70117 | 33400 ft | 434 kts | 108° |
| 2026-05-04 13:23 | 53.03009 | 0.74843 | 33746 ft | 433 kts | 108° |
| 2026-05-04 13:23 | 53.02051 | 0.79604 | 33945 ft | 435 kts | 108° |
| 2026-05-04 13:23 | 53.01092 | 0.84355 | 34209 ft | 434 kts | 108° |
| 2026-05-04 13:23 | 53.00132 | 0.89111 | 34505 ft | 432 kts | 109° |
| 2026-05-04 13:24 | 52.99171 | 0.93859 | 34530 ft | 438 kts | 109° |
| 2026-05-04 13:24 | 52.97186 | 1.03472 | 34827 ft | 441 kts | 111° |
| 2026-05-04 13:25 | 52.95031 | 1.13037 | 35019 ft | 442 kts | 112° |
| 2026-05-04 13:25 | 52.93933 | 1.17803 | 35061 ft | 443 kts | 112° |
| 2026-05-04 13:25 | 52.91746 | 1.27310 | 35047 ft | 444 kts | 112° |
| 2026-05-04 13:26 | 52.89552 | 1.36883 | 35045 ft | 445 kts | 112° |
| 2026-05-04 13:26 | 52.87351 | 1.46480 | 35042 ft | 446 kts | 112° |
| 2026-05-04 13:27 | 52.85146 | 1.56058 | 35029 ft | 446 kts | 113° |
| 2026-05-04 13:27 | 52.82932 | 1.65631 | 35041 ft | 446 kts | 113° |
| 2026-05-04 13:28 | 52.80705 | 1.75215 | 35045 ft | 446 kts | 113° |
| 2026-05-04 13:28 | 52.78472 | 1.84783 | 35029 ft | 447 kts | 113° |
| 2026-05-04 13:29 | 52.76229 | 1.94348 | 35039 ft | 447 kts | 113° |
| 2026-05-04 13:29 | 52.73978 | 2.03918 | 35020 ft | 447 kts | 114° |
| 2026-05-04 13:30 | 52.71718 | 2.13470 | 35022 ft | 447 kts | 115° |
| 2026-05-04 13:30 | 52.69448 | 2.23016 | 35032 ft | 447 kts | 115° |
| 2026-05-04 13:31 | 52.67173 | 2.32547 | 35031 ft | 447 kts | 115° |
| 2026-05-04 13:31 | 52.64886 | 2.42088 | 35029 ft | 448 kts | 115° |
| 2026-05-04 13:32 | 52.62593 | 2.51616 | 35011 ft | 448 kts | 115° |
| 2026-05-04 13:32 | 52.60290 | 2.61138 | 35015 ft | 448 kts | 115° |
| 2026-05-04 13:33 | 52.57978 | 2.70665 | 35025 ft | 449 kts | 115° |
| 2026-05-04 13:33 | 52.55652 | 2.80206 | 35020 ft | 450 kts | 115° |
| 2026-05-04 13:34 | 52.53060 | 2.89523 | 35018 ft | 447 kts | 122° |
| 2026-05-04 13:34 | 52.50033 | 2.98436 | 35015 ft | 448 kts | 123° |
| 2026-05-04 13:35 | 52.45435 | 3.11784 | 35007 ft | 449 kts | 124° |
| 2026-05-04 13:36 | 52.42398 | 3.20725 | 35011 ft | 449 kts | 123° |
| 2026-05-04 13:36 | 52.39362 | 3.29682 | 35012 ft | 449 kts | 123° |
| 2026-05-04 13:37 | 52.36326 | 3.38624 | 35007 ft | 450 kts | 123° |
| 2026-05-04 13:37 | 52.33283 | 3.47549 | 34990 ft | 450 kts | 124° |
| 2026-05-04 13:38 | 52.30232 | 3.56460 | 34996 ft | 449 kts | 124° |
| 2026-05-04 13:38 | 52.27177 | 3.65355 | 34999 ft | 449 kts | 124° |
| 2026-05-04 13:39 | 52.24112 | 3.74242 | 35001 ft | 449 kts | 124° |
| 2026-05-04 13:39 | 52.21041 | 3.83118 | 34999 ft | 449 kts | 125° |
| 2026-05-04 13:40 | 52.17970 | 3.91962 | 34992 ft | 448 kts | 125° |
| 2026-05-04 13:40 | 52.14895 | 4.00786 | 34996 ft | 447 kts | 125° |
| 2026-05-04 13:41 | 52.11821 | 4.09577 | 35000 ft | 446 kts | 125° |
| 2026-05-04 13:41 | 52.08756 | 4.18312 | 34991 ft | 446 kts | 125° |
| 2026-05-04 13:42 | 52.04138 | 4.31412 | 34984 ft | 445 kts | 126° |
| 2026-05-04 13:42 | 52.01057 | 4.40117 | 34998 ft | 444 kts | 126° |
| 2026-05-04 13:43 | 51.97993 | 4.48741 | 34995 ft | 444 kts | 126° |
| 2026-05-04 13:43 | 51.94910 | 4.57391 | 34994 ft | 443 kts | 126° |
| 2026-05-04 13:44 | 51.91837 | 4.65985 | 34993 ft | 443 kts | 126° |
| 2026-05-04 13:44 | 51.88725 | 4.74654 | 34976 ft | 443 kts | 126° |
| 2026-05-04 13:45 | 51.85631 | 4.83247 | 34980 ft | 442 kts | 126° |
| 2026-05-04 13:45 | 51.82477 | 4.91975 | 34978 ft | 441 kts | 126° |
| 2026-05-04 13:46 | 51.79428 | 5.00384 | 34987 ft | 441 kts | 126° |
| 2026-05-04 13:46 | 51.76329 | 5.08903 | 34991 ft | 441 kts | 126° |
| 2026-05-04 13:47 | 51.73211 | 5.17445 | 34987 ft | 442 kts | 126° |
| 2026-05-04 13:47 | 51.70093 | 5.25957 | 34985 ft | 442 kts | 126° |
| 2026-05-04 13:48 | 51.66979 | 5.34432 | 34951 ft | 442 kts | 127° |
| 2026-05-04 13:48 | 51.63813 | 5.43015 | 34988 ft | 446 kts | 127° |
| 2026-05-04 13:49 | 51.60616 | 5.51650 | 34971 ft | 450 kts | 127° |
| 2026-05-04 13:49 | 51.57459 | 5.60172 | 34952 ft | 441 kts | 127° |
| 2026-05-04 13:50 | 51.54313 | 5.68622 | 34950 ft | 441 kts | 127° |
| 2026-05-04 13:50 | 51.51147 | 5.77094 | 34980 ft | 440 kts | 127° |
| 2026-05-04 13:51 | 51.48009 | 5.85460 | 34962 ft | 439 kts | 127° |
| 2026-05-04 13:51 | 51.44856 | 5.93843 | 34981 ft | 438 kts | 127° |
| 2026-05-04 13:52 | 51.40119 | 6.06381 | 35006 ft | 439 kts | 127° |
| 2026-05-04 13:53 | 51.36930 | 6.14785 | 34987 ft | 444 kts | 127° |
| 2026-05-04 13:53 | 51.33717 | 6.23229 | 34951 ft | 444 kts | 127° |
| 2026-05-04 13:54 | 51.28899 | 6.35850 | 34991 ft | 443 kts | 127° |
| 2026-05-04 13:55 | 51.24076 | 6.48415 | 34994 ft | 442 kts | 127° |
| 2026-05-04 13:55 | 51.19254 | 6.60911 | 34994 ft | 441 kts | 128° |
| 2026-05-04 13:56 | 51.16023 | 6.69234 | 34833 ft | 443 kts | 128° |
| 2026-05-04 13:56 | 51.13328 | 6.76265 | 34975 ft | 445 kts | 126° |
| 2026-05-04 13:57 | 51.11735 | 6.80484 | 34964 ft | 446 kts | 127° |
| 2026-05-04 13:58 | 51.05105 | 6.97279 | 34978 ft | 446 kts | 128° |
| 2026-05-04 13:58 | 51.00237 | 7.09629 | 34980 ft | 440 kts | 128° |
| 2026-05-04 13:59 | 50.96984 | 7.17866 | 35000 ft | 440 kts | 128° |
| 2026-05-04 14:00 | 50.92087 | 7.30222 | 35009 ft | 443 kts | 127° |
| 2026-05-04 14:00 | 50.87142 | 7.42640 | 34978 ft | 445 kts | 128° |
| 2026-05-04 14:01 | 50.83840 | 7.50903 | 34983 ft | 445 kts | 128° |
| 2026-05-04 14:02 | 50.78858 | 7.63318 | 34980 ft | 446 kts | 128° |
| 2026-05-04 14:02 | 50.75523 | 7.71594 | 34987 ft | 446 kts | 128° |
| 2026-05-04 14:03 | 50.72183 | 7.79857 | 34992 ft | 447 kts | 128° |
| 2026-05-04 14:03 | 50.68833 | 7.88118 | 34991 ft | 447 kts | 128° |
| 2026-05-04 14:04 | 50.63799 | 8.00492 | 34984 ft | 448 kts | 128° |
| 2026-05-04 14:04 | 50.60425 | 8.08742 | 34982 ft | 447 kts | 128° |
| 2026-05-04 14:05 | 50.54744 | 8.20267 | 34985 ft | 443 kts | 135° |
| 2026-05-04 14:06 | 50.50833 | 8.27768 | 34983 ft | 444 kts | 134° |
| 2026-05-04 14:06 | 50.46960 | 8.35316 | 34983 ft | 444 kts | 134° |
| 2026-05-04 14:07 | 50.43097 | 8.42874 | 34974 ft | 444 kts | 134° |
| 2026-05-04 14:07 | 50.39223 | 8.50430 | 34976 ft | 444 kts | 134° |
| 2026-05-04 14:08 | 50.35224 | 8.57767 | 34978 ft | 441 kts | 138° |
| 2026-05-04 14:08 | 50.31039 | 8.64708 | 34974 ft | 440 kts | 139° |
| 2026-05-04 14:09 | 50.24724 | 8.75098 | 34976 ft | 440 kts | 139° |
| 2026-05-04 14:10 | 50.18437 | 8.85529 | 34975 ft | 440 kts | 139° |
| 2026-05-04 14:10 | 50.14249 | 8.92475 | 34975 ft | 440 kts | 139° |
| 2026-05-04 14:11 | 50.10048 | 8.99424 | 34977 ft | 440 kts | 139° |
| 2026-05-04 14:11 | 50.03766 | 9.09775 | 34982 ft | 440 kts | 139° |
| 2026-05-04 14:12 | 49.99556 | 9.16688 | 34962 ft | 440 kts | 139° |
| 2026-05-04 14:13 | 49.93211 | 9.27070 | 34979 ft | 442 kts | 139° |
| 2026-05-04 14:13 | 49.88982 | 9.33969 | 34981 ft | 442 kts | 139° |
| 2026-05-04 14:14 | 49.84739 | 9.40870 | 34988 ft | 442 kts | 139° |
| 2026-05-04 14:14 | 49.78355 | 9.51219 | 34979 ft | 442 kts | 139° |
| 2026-05-04 14:15 | 49.69844 | 9.64952 | 34975 ft | 442 kts | 139° |
| 2026-05-04 14:16 | 49.63443 | 9.75229 | 34993 ft | 443 kts | 139° |
| 2026-05-04 14:17 | 49.56993 | 9.85542 | 34969 ft | 447 kts | 139° |
| 2026-05-04 14:18 | 49.50516 | 9.95861 | 34983 ft | 445 kts | 138° |
| 2026-05-04 14:19 | 49.41924 | 10.09484 | 34997 ft | 443 kts | 138° |
| 2026-05-04 14:19 | 49.37626 | 10.16271 | 34994 ft | 443 kts | 139° |
| 2026-05-04 14:20 | 49.33328 | 10.23039 | 34989 ft | 442 kts | 139° |
| 2026-05-04 14:20 | 49.29065 | 10.29740 | 34986 ft | 442 kts | 138° |
| 2026-05-04 14:21 | 49.22413 | 10.39514 | 34992 ft | 436 kts | 150° |
| 2026-05-04 14:21 | 49.17246 | 10.44248 | 35009 ft | 433 kts | 154° |
| 2026-05-04 14:22 | 49.12067 | 10.48851 | 35019 ft | 434 kts | 154° |
| 2026-05-04 14:22 | 49.06851 | 10.53551 | 35010 ft | 436 kts | 153° |
| 2026-05-04 14:23 | 48.99026 | 10.60644 | 34992 ft | 436 kts | 153° |
| 2026-05-04 14:24 | 48.93814 | 10.65356 | 35003 ft | 436 kts | 153° |
| 2026-05-04 14:24 | 48.88592 | 10.70065 | 34998 ft | 437 kts | 153° |
| 2026-05-04 14:25 | 48.83362 | 10.74768 | 34986 ft | 437 kts | 152° |
| 2026-05-04 14:25 | 48.78641 | 10.80657 | 34987 ft | 444 kts | 135° |
| 2026-05-04 14:25 | 48.76581 | 10.84156 | 34983 ft | 445 kts | 135° |
| 2026-05-04 14:26 | 48.72489 | 10.91173 | 34971 ft | 444 kts | 135° |
| 2026-05-04 14:26 | 48.68381 | 10.98131 | 34960 ft | 443 kts | 135° |
| 2026-05-04 14:27 | 48.64250 | 11.05046 | 34967 ft | 442 kts | 135° |
| 2026-05-04 14:27 | 48.60125 | 11.11916 | 34967 ft | 441 kts | 135° |
| 2026-05-04 14:28 | 48.55996 | 11.18773 | 34963 ft | 441 kts | 135° |
| 2026-05-04 14:28 | 48.51875 | 11.25601 | 34947 ft | 440 kts | 135° |
| 2026-05-04 14:29 | 48.43625 | 11.39220 | 34956 ft | 440 kts | 135° |
| 2026-05-04 14:30 | 48.39491 | 11.46018 | 34950 ft | 440 kts | 135° |
| 2026-05-04 14:31 | 48.33275 | 11.56208 | 34940 ft | 441 kts | 135° |
| 2026-05-04 14:32 | 48.24905 | 11.69708 | 34940 ft | 440 kts | 139° |
| 2026-05-04 14:32 | 48.20409 | 11.75924 | 34946 ft | 440 kts | 141° |
| 2026-05-04 14:33 | 48.15847 | 11.82035 | 34946 ft | 440 kts | 141° |
| 2026-05-04 14:33 | 48.11302 | 11.88184 | 34940 ft | 440 kts | 141° |
| 2026-05-04 14:34 | 48.06775 | 11.94353 | 34942 ft | 441 kts | 141° |
| 2026-05-04 14:34 | 48.02241 | 12.00532 | 34918 ft | 441 kts | 140° |
| 2026-05-04 14:35 | 47.97736 | 12.06656 | 34928 ft | 440 kts | 140° |
| 2026-05-04 14:35 | 47.93205 | 12.12799 | 34932 ft | 440 kts | 140° |
| 2026-05-04 14:36 | 47.88644 | 12.18966 | 34926 ft | 440 kts | 140° |
| 2026-05-04 14:36 | 47.84112 | 12.25080 | 34921 ft | 440 kts | 140° |
| 2026-05-04 14:37 | 47.79578 | 12.31181 | 34922 ft | 439 kts | 140° |
| 2026-05-04 14:37 | 47.75038 | 12.37274 | 34928 ft | 439 kts | 140° |
| 2026-05-04 14:38 | 47.70509 | 12.43340 | 34910 ft | 439 kts | 140° |
| 2026-05-04 14:38 | 47.66015 | 12.49346 | 34924 ft | 438 kts | 141° |
| 2026-05-04 14:39 | 47.62224 | 12.54424 | 34908 ft | 438 kts | 139° |
| 2026-05-04 14:39 | 47.57900 | 12.60804 | 34919 ft | 439 kts | 137° |
| 2026-05-04 14:40 | 47.51535 | 12.70561 | 34935 ft | 440 kts | 136° |
| 2026-05-04 14:40 | 47.47291 | 12.76997 | 34921 ft | 440 kts | 137° |
| 2026-05-04 14:41 | 47.42975 | 12.83488 | 34923 ft | 440 kts | 137° |
| 2026-05-04 14:42 | 47.34399 | 12.96315 | 34948 ft | 438 kts | 137° |
| 2026-05-04 14:42 | 47.30112 | 13.02704 | 34970 ft | 439 kts | 137° |
| 2026-05-04 14:43 | 47.25815 | 13.09092 | 34973 ft | 440 kts | 137° |
| 2026-05-04 14:43 | 47.21505 | 13.15484 | 34976 ft | 440 kts | 137° |
| 2026-05-04 14:44 | 47.17189 | 13.21871 | 35001 ft | 440 kts | 137° |
| 2026-05-04 14:44 | 47.12894 | 13.28210 | 34991 ft | 441 kts | 137° |
| 2026-05-04 14:45 | 47.08546 | 13.34613 | 35008 ft | 441 kts | 137° |
| 2026-05-04 14:45 | 47.04243 | 13.40934 | 35012 ft | 441 kts | 137° |
| 2026-05-04 14:46 | 46.99907 | 13.47286 | 35023 ft | 441 kts | 137° |
| 2026-05-04 14:46 | 46.95540 | 13.53670 | 35023 ft | 440 kts | 137° |
| 2026-05-04 14:47 | 46.91238 | 13.59943 | 35016 ft | 439 kts | 137° |
| 2026-05-04 14:47 | 46.86910 | 13.66240 | 35027 ft | 439 kts | 138° |
| 2026-05-04 14:48 | 46.82580 | 13.72522 | 35021 ft | 439 kts | 137° |
| 2026-05-04 14:48 | 46.78246 | 13.78798 | 35042 ft | 440 kts | 137° |
| 2026-05-04 14:49 | 46.73888 | 13.85089 | 35017 ft | 441 kts | 137° |
| 2026-05-04 14:49 | 46.69515 | 13.91389 | 35041 ft | 443 kts | 138° |
| 2026-05-04 14:50 | 46.65126 | 13.97698 | 35030 ft | 444 kts | 137° |
| 2026-05-04 14:50 | 46.60712 | 14.04026 | 35016 ft | 446 kts | 137° |
| 2026-05-04 14:51 | 46.56290 | 14.10351 | 35030 ft | 447 kts | 137° |
| 2026-05-04 14:51 | 46.51844 | 14.16695 | 35027 ft | 448 kts | 138° |
| 2026-05-04 14:52 | 46.47391 | 14.23037 | 35025 ft | 448 kts | 137° |
| 2026-05-04 14:52 | 46.42932 | 14.29367 | 35028 ft | 449 kts | 138° |
| 2026-05-04 14:53 | 46.38471 | 14.35685 | 35046 ft | 449 kts | 138° |
| 2026-05-04 14:53 | 46.33993 | 14.42014 | 35053 ft | 449 kts | 137° |
| 2026-05-04 14:54 | 46.29522 | 14.48316 | 35048 ft | 449 kts | 137° |
| 2026-05-04 14:54 | 46.25048 | 14.54610 | 35040 ft | 449 kts | 138° |
| 2026-05-04 14:55 | 46.20568 | 14.60895 | 35044 ft | 449 kts | 137° |
| 2026-05-04 14:55 | 46.16086 | 14.67170 | 35049 ft | 449 kts | 137° |
| 2026-05-04 14:56 | 46.11636 | 14.73387 | 35056 ft | 449 kts | 137° |
| 2026-05-04 14:56 | 46.07153 | 14.79638 | 35046 ft | 448 kts | 137° |
| 2026-05-04 14:57 | 46.02692 | 14.85898 | 35046 ft | 448 kts | 137° |
| 2026-05-04 14:57 | 45.98233 | 14.92162 | 35042 ft | 449 kts | 137° |
| 2026-05-04 14:58 | 45.93757 | 14.98431 | 35039 ft | 450 kts | 137° |
| 2026-05-04 14:58 | 45.89270 | 15.04697 | 35042 ft | 451 kts | 137° |
| 2026-05-04 14:59 | 45.84769 | 15.10966 | 35033 ft | 451 kts | 137° |
| 2026-05-04 15:00 | 45.77994 | 15.20374 | 35036 ft | 452 kts | 137° |
| 2026-05-04 15:00 | 45.73468 | 15.26640 | 35029 ft | 453 kts | 137° |
| 2026-05-04 15:01 | 45.66654 | 15.36046 | 35017 ft | 454 kts | 137° |
| 2026-05-04 15:01 | 45.62107 | 15.42305 | 35012 ft | 454 kts | 137° |
| 2026-05-04 15:02 | 45.57540 | 15.48576 | 35019 ft | 455 kts | 137° |
| 2026-05-04 15:02 | 45.52985 | 15.54815 | 35021 ft | 454 kts | 137° |
| 2026-05-04 15:03 | 45.48452 | 15.61010 | 35020 ft | 454 kts | 137° |
| 2026-05-04 15:03 | 45.43899 | 15.67217 | 35034 ft | 453 kts | 137° |
| 2026-05-04 15:04 | 45.39345 | 15.73412 | 35029 ft | 453 kts | 137° |
| 2026-05-04 15:04 | 45.34760 | 15.79633 | 35035 ft | 452 kts | 137° |
| 2026-05-04 15:05 | 45.30235 | 15.85759 | 35041 ft | 452 kts | 137° |
| 2026-05-04 15:05 | 45.25657 | 15.91944 | 35044 ft | 452 kts | 137° |
| 2026-05-04 15:06 | 45.21127 | 15.98047 | 35027 ft | 452 kts | 137° |
| 2026-05-04 15:07 | 45.14274 | 16.07256 | 35039 ft | 453 kts | 137° |
| 2026-05-04 15:07 | 45.09692 | 16.13396 | 35037 ft | 453 kts | 137° |
| 2026-05-04 15:08 | 45.05108 | 16.19524 | 35040 ft | 454 kts | 137° |
| 2026-05-04 15:08 | 45.00513 | 16.25656 | 35033 ft | 454 kts | 137° |
| 2026-05-04 15:09 | 44.95959 | 16.31840 | 35023 ft | 455 kts | 133° |
| 2026-05-04 15:09 | 44.91776 | 16.38553 | 35030 ft | 456 kts | 130° |
| 2026-05-04 15:10 | 44.85587 | 16.48747 | 35036 ft | 457 kts | 131° |
| 2026-05-04 15:11 | 44.79335 | 16.58874 | 35039 ft | 457 kts | 131° |
| 2026-05-04 15:11 | 44.75144 | 16.65615 | 35036 ft | 458 kts | 131° |
| 2026-05-04 15:12 | 44.70945 | 16.72353 | 35037 ft | 458 kts | 131° |
| 2026-05-04 15:12 | 44.66750 | 16.79072 | 35035 ft | 458 kts | 131° |
| 2026-05-04 15:13 | 44.62543 | 16.85794 | 35043 ft | 458 kts | 130° |
| 2026-05-04 15:13 | 44.58336 | 16.92500 | 35041 ft | 458 kts | 130° |
| 2026-05-04 15:14 | 44.54127 | 16.99196 | 35043 ft | 457 kts | 130° |
| 2026-05-04 15:14 | 44.49910 | 17.05889 | 35046 ft | 457 kts | 131° |
| 2026-05-04 15:15 | 44.45742 | 17.12487 | 35048 ft | 457 kts | 130° |
| 2026-05-04 15:15 | 44.41502 | 17.19196 | 35057 ft | 456 kts | 130° |
| 2026-05-04 15:16 | 44.35191 | 17.29161 | 35043 ft | 456 kts | 130° |
| 2026-05-04 15:17 | 44.28873 | 17.39103 | 35040 ft | 457 kts | 130° |
| 2026-05-04 15:17 | 44.22522 | 17.49064 | 35052 ft | 458 kts | 130° |
| 2026-05-04 15:18 | 44.18275 | 17.55696 | 35046 ft | 459 kts | 130° |
| 2026-05-04 15:19 | 44.11910 | 17.65617 | 35044 ft | 458 kts | 130° |
| 2026-05-04 15:19 | 44.05961 | 17.76008 | 35057 ft | 458 kts | 126° |
| 2026-05-04 15:20 | 44.02128 | 17.82991 | 35045 ft | 458 kts | 126° |
| 2026-05-04 15:20 | 43.98241 | 17.89985 | 35051 ft | 457 kts | 126° |
| 2026-05-04 15:21 | 43.94335 | 17.96947 | 35054 ft | 457 kts | 127° |
| 2026-05-04 15:22 | 43.88471 | 18.07349 | 35054 ft | 455 kts | 127° |
| 2026-05-04 15:22 | 43.82609 | 18.17713 | 35055 ft | 456 kts | 127° |
| 2026-05-04 15:23 | 43.78681 | 18.24636 | 35052 ft | 457 kts | 127° |
| 2026-05-04 15:23 | 43.74751 | 18.31549 | 35050 ft | 457 kts | 127° |
| 2026-05-04 15:24 | 43.67511 | 18.44241 | 35043 ft | 458 kts | 127° |
| 2026-05-04 15:25 | 43.63554 | 18.51155 | 35060 ft | 458 kts | 127° |
| 2026-05-04 15:26 | 43.57615 | 18.61502 | 35074 ft | 459 kts | 127° |
| 2026-05-04 15:26 | 43.51693 | 18.71785 | 35072 ft | 459 kts | 127° |
| 2026-05-04 15:27 | 43.45720 | 18.82118 | 35075 ft | 460 kts | 127° |
| 2026-05-04 15:28 | 43.39735 | 18.92434 | 35064 ft | 460 kts | 127° |
| 2026-05-04 15:29 | 43.33752 | 19.02718 | 35067 ft | 459 kts | 127° |
| 2026-05-04 15:30 | 43.19809 | 19.26551 | 35074 ft | 457 kts | 127° |
| 2026-05-04 15:31 | 43.13827 | 19.36716 | 35080 ft | 457 kts | 127° |
| 2026-05-04 15:32 | 43.03831 | 19.53625 | 35087 ft | 457 kts | 126° |
| 2026-05-04 15:34 | 42.93793 | 19.70509 | 35091 ft | 459 kts | 127° |
| 2026-05-04 15:34 | 42.87751 | 19.80625 | 35108 ft | 459 kts | 126° |
| 2026-05-04 15:35 | 42.81707 | 19.90711 | 35101 ft | 460 kts | 127° |
| 2026-05-04 15:36 | 42.75599 | 20.00871 | 35095 ft | 462 kts | 127° |
| 2026-05-04 15:36 | 42.71550 | 20.07577 | 35116 ft | 461 kts | 127° |
| 2026-05-04 15:37 | 42.67450 | 20.14344 | 35130 ft | 460 kts | 126° |
| 2026-05-04 15:37 | 42.63405 | 20.21009 | 35130 ft | 460 kts | 126° |
| 2026-05-04 15:38 | 42.59332 | 20.27707 | 35097 ft | 459 kts | 127° |
| 2026-05-04 15:38 | 42.55274 | 20.34366 | 35107 ft | 458 kts | 126° |
| 2026-05-04 15:39 | 42.51183 | 20.41065 | 35111 ft | 458 kts | 127° |
| 2026-05-04 15:40 | 42.45088 | 20.51018 | 35117 ft | 459 kts | 126° |
| 2026-05-04 15:40 | 42.40999 | 20.57675 | 35120 ft | 460 kts | 126° |
| 2026-05-04 15:41 | 42.36909 | 20.64321 | 35120 ft | 460 kts | 126° |
| 2026-05-04 15:41 | 42.32805 | 20.70974 | 35116 ft | 461 kts | 126° |
| 2026-05-04 15:42 | 42.28688 | 20.77632 | 35124 ft | 462 kts | 126° |
| 2026-05-04 15:42 | 42.24589 | 20.84246 | 35127 ft | 463 kts | 126° |
| 2026-05-04 15:43 | 42.20420 | 20.90960 | 35125 ft | 463 kts | 126° |
| 2026-05-04 15:43 | 42.16321 | 20.97548 | 35140 ft | 463 kts | 126° |
| 2026-05-04 15:44 | 42.12179 | 21.04191 | 35121 ft | 463 kts | 126° |
| 2026-05-04 15:44 | 42.07708 | 21.10463 | 35125 ft | 465 kts | 133° |
| 2026-05-04 15:45 | 42.02918 | 21.16403 | 35134 ft | 465 kts | 134° |
| 2026-05-04 15:45 | 41.98160 | 21.22288 | 35123 ft | 464 kts | 134° |
| 2026-05-04 15:46 | 41.93439 | 21.28205 | 35122 ft | 464 kts | 134° |
| 2026-05-04 15:46 | 41.88732 | 21.34137 | 35104 ft | 464 kts | 134° |
| 2026-05-04 15:47 | 41.84027 | 21.40061 | 35104 ft | 464 kts | 134° |
| 2026-05-04 15:47 | 41.79350 | 21.45934 | 35105 ft | 464 kts | 134° |
| 2026-05-04 15:48 | 41.74633 | 21.51842 | 35072 ft | 464 kts | 134° |
| 2026-05-04 15:48 | 41.67599 | 21.60627 | 35099 ft | 461 kts | 134° |
| 2026-05-04 15:49 | 41.62895 | 21.66489 | 35092 ft | 462 kts | 134° |
| 2026-05-04 15:49 | 41.58175 | 21.72359 | 35094 ft | 464 kts | 134° |
| 2026-05-04 15:50 | 41.53430 | 21.78246 | 35103 ft | 466 kts | 134° |
| 2026-05-04 15:50 | 41.48670 | 21.84140 | 35089 ft | 468 kts | 134° |
| 2026-05-04 15:51 | 41.43893 | 21.90041 | 35094 ft | 468 kts | 134° |
| 2026-05-04 15:51 | 41.39119 | 21.95927 | 35082 ft | 465 kts | 134° |
| 2026-05-04 15:52 | 41.36752 | 21.98839 | 34964 ft | 460 kts | 134° |
| 2026-05-04 15:52 | 41.34418 | 22.01706 | 34708 ft | 453 kts | 134° |
| 2026-05-04 15:52 | 41.32131 | 22.04515 | 34456 ft | 447 kts | 134° |
| 2026-05-04 15:52 | 41.29852 | 22.07313 | 34215 ft | 443 kts | 134° |
| 2026-05-04 15:53 | 41.27586 | 22.10092 | 33957 ft | 441 kts | 134° |
| 2026-05-04 15:53 | 41.25336 | 22.12850 | 33698 ft | 439 kts | 134° |
| 2026-05-04 15:53 | 41.23100 | 22.15589 | 33454 ft | 436 kts | 134° |
| 2026-05-04 15:53 | 41.20871 | 22.18316 | 33188 ft | 434 kts | 135° |
| 2026-05-04 15:54 | 41.18659 | 22.21018 | 32935 ft | 431 kts | 135° |
| 2026-05-04 15:54 | 41.16456 | 22.23703 | 32667 ft | 428 kts | 135° |
| 2026-05-04 15:54 | 41.14217 | 22.26279 | 32393 ft | 425 kts | 138° |
| 2026-05-04 15:54 | 41.11935 | 22.28756 | 32136 ft | 421 kts | 139° |
| 2026-05-04 15:55 | 41.09663 | 22.31168 | 31885 ft | 417 kts | 139° |
| 2026-05-04 15:55 | 41.07397 | 22.33563 | 31627 ft | 414 kts | 139° |
| 2026-05-04 15:55 | 41.05165 | 22.35929 | 31373 ft | 410 kts | 139° |
| 2026-05-04 15:55 | 41.02952 | 22.38285 | 31125 ft | 406 kts | 139° |
| 2026-05-04 15:56 | 41.00757 | 22.40630 | 30882 ft | 402 kts | 139° |
| 2026-05-04 15:56 | 40.98589 | 22.42938 | 30634 ft | 398 kts | 141° |
| 2026-05-04 15:56 | 40.96247 | 22.44862 | 30371 ft | 395 kts | 151° |
| 2026-05-04 15:56 | 40.93836 | 22.46466 | 30180 ft | 390 kts | 152° |
| 2026-05-04 15:57 | 40.91426 | 22.48049 | 29895 ft | 384 kts | 152° |
| 2026-05-04 15:57 | 40.89019 | 22.49630 | 29594 ft | 378 kts | 152° |
| 2026-05-04 15:57 | 40.86682 | 22.51175 | 29309 ft | 373 kts | 152° |
| 2026-05-04 15:57 | 40.84389 | 22.52701 | 29021 ft | 368 kts | 151° |
| 2026-05-04 15:58 | 40.82142 | 22.54202 | 28740 ft | 364 kts | 151° |
| 2026-05-04 15:58 | 40.79870 | 22.55723 | 28462 ft | 360 kts | 151° |
| 2026-05-04 15:58 | 40.77684 | 22.57189 | 28193 ft | 356 kts | 151° |
| 2026-05-04 15:58 | 40.75446 | 22.58691 | 27923 ft | 358 kts | 151° |
| 2026-05-04 15:59 | 40.73206 | 22.60194 | 27668 ft | 365 kts | 151° |
| 2026-05-04 15:59 | 40.70932 | 22.61720 | 27434 ft | 368 kts | 151° |
| 2026-05-04 15:59 | 40.68663 | 22.63239 | 27164 ft | 364 kts | 151° |
| 2026-05-04 15:59 | 40.66444 | 22.64724 | 26900 ft | 360 kts | 151° |
| 2026-05-04 16:00 | 40.64217 | 22.66212 | 26583 ft | 356 kts | 151° |
| 2026-05-04 16:00 | 40.62016 | 22.67683 | 26254 ft | 354 kts | 152° |
| 2026-05-04 16:00 | 40.59830 | 22.69142 | 25925 ft | 351 kts | 152° |
| 2026-05-04 16:00 | 40.57659 | 22.70591 | 25597 ft | 349 kts | 152° |
| 2026-05-04 16:01 | 40.55501 | 22.72029 | 25276 ft | 347 kts | 152° |
| 2026-05-04 16:01 | 40.53346 | 22.73466 | 24950 ft | 345 kts | 152° |
| 2026-05-04 16:01 | 40.51215 | 22.74884 | 24626 ft | 343 kts | 152° |
| 2026-05-04 16:01 | 40.49089 | 22.76299 | 24304 ft | 342 kts | 152° |
| 2026-05-04 16:02 | 40.46977 | 22.77703 | 23997 ft | 340 kts | 152° |
| 2026-05-04 16:02 | 40.44870 | 22.79103 | 23667 ft | 339 kts | 152° |
| 2026-05-04 16:02 | 40.40682 | 22.81882 | 22942 ft | 335 kts | 152° |
| 2026-05-04 16:03 | 40.38611 | 22.83256 | 22628 ft | 332 kts | 152° |
| 2026-05-04 16:03 | 40.36555 | 22.84617 | 22300 ft | 330 kts | 152° |
| 2026-05-04 16:03 | 40.34511 | 22.85971 | 21986 ft | 328 kts | 152° |
| 2026-05-04 16:03 | 40.32481 | 22.87314 | 21672 ft | 326 kts | 152° |
| 2026-05-04 16:04 | 40.30466 | 22.88646 | 21363 ft | 324 kts | 152° |
| 2026-05-04 16:04 | 40.26469 | 22.91287 | 20758 ft | 320 kts | 151° |
| 2026-05-04 16:04 | 40.24486 | 22.92595 | 20455 ft | 318 kts | 152° |
| 2026-05-04 16:05 | 40.22515 | 22.93895 | 20149 ft | 317 kts | 151° |
| 2026-05-04 16:05 | 40.20551 | 22.95189 | 19859 ft | 315 kts | 152° |
| 2026-05-04 16:05 | 40.16649 | 22.97761 | 19259 ft | 313 kts | 152° |
| 2026-05-04 16:06 | 40.14706 | 22.99038 | 18963 ft | 312 kts | 152° |
| 2026-05-04 16:06 | 40.09539 | 23.02432 | 18148 ft | 310 kts | 152° |
| 2026-05-04 16:07 | 40.06990 | 23.04104 | 17722 ft | 308 kts | 152° |
| 2026-05-04 16:07 | 40.01281 | 23.07844 | 16832 ft | 304 kts | 151° |
| 2026-05-04 16:08 | 40.00010 | 23.08675 | 16640 ft | 303 kts | 151° |
| 2026-05-04 16:08 | 39.94388 | 23.12350 | 15782 ft | 303 kts | 150° |
| 2026-05-04 16:09 | 39.90560 | 23.14852 | 15212 ft | 314 kts | 150° |
| 2026-05-04 16:09 | 39.86617 | 23.17424 | 14596 ft | 317 kts | 150° |
| 2026-05-04 16:10 | 39.82681 | 23.19984 | 13977 ft | 315 kts | 150° |
| 2026-05-04 16:11 | 39.76825 | 23.23789 | 12997 ft | 312 kts | 150° |
| 2026-05-04 16:11 | 39.74891 | 23.25045 | 12687 ft | 310 kts | 150° |
| 2026-05-04 16:12 | 39.69144 | 23.28771 | 11795 ft | 305 kts | 151° |
| 2026-05-04 16:12 | 39.63484 | 23.32434 | 10925 ft | 301 kts | 151° |
| 2026-05-04 16:13 | 39.59742 | 23.34852 | 10354 ft | 299 kts | 152° |
| 2026-05-04 16:13 | 39.56074 | 23.37219 | 9942 ft | 291 kts | 152° |
| 2026-05-04 16:14 | 39.52458 | 23.39550 | 9369 ft | 289 kts | 152° |
| 2026-05-04 16:14 | 39.48873 | 23.41859 | 8814 ft | 286 kts | 152° |
| 2026-05-04 16:15 | 39.43568 | 23.45269 | 8016 ft | 282 kts | 151° |
| 2026-05-04 16:16 | 39.40066 | 23.47519 | 7474 ft | 281 kts | 151° |
| 2026-05-04 16:16 | 39.34841 | 23.50869 | 6697 ft | 278 kts | 151° |
| 2026-05-04 16:17 | 39.31382 | 23.53085 | 6147 ft | 277 kts | 151° |
| 2026-05-04 16:18 | 39.26223 | 23.56385 | 5326 ft | 275 kts | 152° |
| 2026-05-04 16:18 | 39.24510 | 23.57480 | 5062 ft | 274 kts | 152° |
| 2026-05-04 16:19 | 39.19402 | 23.60711 | 4192 ft | 276 kts | 158° |
| 2026-05-04 16:19 | 39.15779 | 23.60217 | 4009 ft | 265 kts | 208° |
| 2026-05-04 16:20 | 39.10909 | 23.56958 | 3460 ft | 261 kts | 211° |
| 2026-05-04 16:20 | 39.07731 | 23.54850 | 2831 ft | 251 kts | 210° |
| 2026-05-04 16:21 | 39.03369 | 23.52006 | 2329 ft | 208 kts | 211° |
| 2026-05-04 16:22 | 39.02041 | 23.49373 | 1994 ft | 174 kts | 276° |
| 2026-05-04 16:22 | 39.04296 | 23.46596 | 1751 ft | 158 kts | 358° |
| 2026-05-04 16:23 | 39.07492 | 23.47397 | 1426 ft | 145 kts | 9° |
| 2026-05-04 16:24 | 39.11329 | 23.48283 | 1114 ft | 137 kts | 6° |
| 2026-05-04 16:25 | 39.13258 | 23.48669 | 849 ft | 140 kts | 7° |
| 2026-05-04 16:26 | 39.17059 | 23.50077 | 35 ft | 144 kts | 18° |
| 2026-05-04 16:26 | 39.18228 | 23.50598 | 55 ft | 23 kts | 19° |
| 2026-05-04 16:27 | 39.18428 | 23.50686 | 60 ft | 6 kts | 17° |
| 2026-05-04 16:28 | 39.18501 | 23.50742 | 60 ft | 6 kts | 156° |
| 2026-05-04 16:28 | 39.18371 | 23.50661 | 51 ft | 12 kts | 199° |
| 2026-05-04 16:29 | 39.18008 | 23.50499 | 46 ft | 13 kts | 201° |
| 2026-05-04 16:30 | 39.17899 | 23.50326 | 37 ft | 8 kts | 243° |
| 2026-05-04 16:31 | 39.17906 | 23.50254 | 38 ft | 2 kts | 288° |
| 2026-05-04 16:31 | 39.17909 | 23.50241 | 38 ft | 0 kts | 289° |